Sao Geraldo do Araguaia, Brazil
Current Conditions -  °F | °C
As of 11:00 AM on Wednesday 28 Jan 2015 (Local Time) from SBMA Reporting Station
Broken Clouds Broken Clouds  
Wind Chill: 86°   Ceiling: 2000
Heat Index: 95°   Visibility: 6mi
Dew Point: 75°   Wind: 7mph
Humidity: 70%   Direction: 60°ENE
Pressure: 29.91"   Gusts: NA
Location:  6.4°S, 48.55°W
Report Text: SBMA 281400Z 06006KT 9999 BKN020 30/24 Q1013
Loading
Personal Weather Stations






























Interactive Weather Map New forecast layout! Learn more

10-Day Weather Forecast

Advertisements
Track Severe Weather on mobile